KSTJ/STJ METAR and TAF weather

Enter ICAO airport designator
Station Type Date Time Source
KSTJ METAR 2019/04/20 21:53 UTC NOAA

KSTJ 202153Z 21013G20KT 10SM CLR 25/06 A2980 RMK AO2 SLP089 T02500061


Station Type Date Time Source
KSTJ Decoded METAR 2019/04/20 21:53 UTC NOAA

ROSECRANS MEMORIAL AIRPORT, MO, United States (KSTJ) 39-46N 94-55W 247M
Apr 20, 2019 - 05:53 PM EDT / 2019.04.20 2153 UTC
Wind: from the SSW (210 degrees) at 15 MPH (13 KT) gusting to 23 MPH (20 KT):0
Visibility: 10 mile(s):0
Sky conditions: clear
Temperature: 77.0 F (25.0 C)
Dew Point: 43.0 F (6.1 C)
Relative Humidity: 29%
Pressure (altimeter): 29.8 in. Hg (1009 hPa)
ob: KSTJ 202153Z 21013G20KT 10SM CLR 25/06 A2980 RMK AO2 SLP089 T02500061
cycle: 22

Station Type Date Time Source
KSTJ TAF 2019/04/20 18:22 UTC NOAA

TAF KSTJ 201720Z 2018/2118 20011KT P6SM SKC
FM202300 18006KT P6SM SKC
FM210800 17008KT P6SM SKC WS020/21045KT
FM211200 18015G25KT P6SM SCT200

Example: see airport list